Time;durP1;ratioP1;P1;durP2;ratioP2;P2;SDS_P1;SDS_P2;PMS_P1;PMS_P2;Temp;Humidity;BMP_temperature;BMP_pressure;BME280_temperature;BME280_humidity;BME280_pressure;Samples;Min_cycle;Max_cycle;Signal;HPM_P1;HPM_P2
2022/01/23 00:01:25;;;;;;;23.67;9.23;;;3.30;99.70;;;;;;5052510;28;20516;-67
2022/01/23 00:03:54;;;;;;;21.70;8.53;;;3.20;99.70;;;;;;5052420;28;20470;-67
2022/01/23 00:06:20;;;;;;;23.07;8.90;;;3.30;99.70;;;;;;5052493;28;20530;-67
2022/01/23 00:08:48;;;;;;;21.20;8.80;;;3.30;99.70;;;;;;5051539;28;20490;-67
2022/01/23 00:11:14;;;;;;;24.63;8.90;;;3.40;99.70;;;;;;5052256;28;20546;-67
2022/01/23 00:19:09;;;;;;;22.57;9.07;;;3.60;99.70;;;;;;5051469;28;20458;-67
2022/01/23 00:21:38;;;;;;;23.60;9.17;;;3.70;99.70;;;;;;5052107;28;20541;-67
2022/01/23 00:32:18;;;;;;;24.30;8.70;;;3.50;99.70;;;;;;5051910;28;20426;-67
2022/01/23 00:34:46;;;;;;;18.93;7.87;;;3.50;99.70;;;;;;5051916;28;20783;-67
2022/01/23 00:37:13;;;;;;;21.37;8.80;;;3.50;99.70;;;;;;5051728;28;20831;-67
2022/01/23 00:39:40;;;;;;;22.67;8.43;;;3.70;99.70;;;;;;5051385;28;20475;-67
2022/01/23 00:42:09;;;;;;;24.03;9.20;;;3.50;99.70;;;;;;5051624;28;20451;-67
2022/01/23 00:44:37;;;;;;;21.37;9.37;;;3.40;99.70;;;;;;5051613;28;20899;-67
2022/01/23 00:47:10;;;;;;;20.03;8.47;;;3.40;99.70;;;;;;5051551;28;20455;-67
2022/01/23 00:49:37;;;;;;;23.70;8.70;;;3.30;99.70;;;;;;5051069;28;20583;-67
2022/01/23 00:52:06;;;;;;;27.90;10.07;;;3.30;99.70;;;;;;5051418;28;20454;-67
2022/01/23 00:54:33;;;;;;;22.23;8.80;;;3.30;99.70;;;;;;5051418;28;20448;-67
2022/01/23 00:57:00;;;;;;;22.20;9.07;;;3.20;99.70;;;;;;5051475;28;20448;-67
2022/01/23 00:59:27;;;;;;;24.33;9.50;;;3.30;99.70;;;;;;5050986;28;20483;-67
2022/01/23 01:01:53;;;;;;;22.57;9.17;;;3.30;99.70;;;;;;5051445;28;20443;-67
2022/01/23 01:04:20;;;;;;;27.93;9.33;;;3.30;99.70;;;;;;5050988;28;20447;-66
2022/01/23 01:06:47;;;;;;;24.63;9.50;;;3.20;99.70;;;;;;5051295;28;20470;-67
2022/01/23 01:09:15;;;;;;;22.73;9.40;;;3.20;99.70;;;;;;5050206;28;20483;-67
2022/01/23 01:11:57;;;;;;;22.63;9.47;;;3.20;99.70;;;;;;5051226;28;20458;-67
2022/01/23 01:17:19;;;;;;;26.00;10.63;;;3.50;99.70;;;;;;5047187;28;21017;-67
2022/01/23 01:30:55;;;;;;;25.77;11.50;;;3.30;99.70;;;;;;5051036;28;20477;-67
2022/01/23 01:33:32;;;;;;;31.87;10.60;;;3.20;99.70;;;;;;5051000;28;20451;-66
2022/01/23 01:36:03;;;;;;;24.40;10.60;;;3.30;99.70;;;;;;5051128;28;20501;-67
2022/01/23 01:38:31;;;;;;;26.27;10.20;;;3.30;99.70;;;;;;5050260;28;20468;-66
2022/01/23 01:40:59;;;;;;;26.53;10.80;;;3.30;99.70;;;;;;5050968;28;20476;-67
2022/01/23 01:43:26;;;;;;;28.67;10.47;;;3.30;99.70;;;;;;5050768;28;20443;-67
2022/01/23 01:45:54;;;;;;;27.63;10.23;;;3.20;99.70;;;;;;5050750;28;20537;-66
2022/01/23 01:48:24;;;;;;;27.60;10.50;;;3.20;99.70;;;;;;5050436;28;20495;-66
2022/01/23 01:50:52;;;;;;;25.53;9.47;;;3.30;99.70;;;;;;5050655;28;20479;-66
2022/01/23 01:53:19;;;;;;;27.27;10.20;;;3.30;99.70;;;;;;5050695;28;20534;-67
2022/01/23 01:55:49;;;;;;;30.77;11.00;;;3.20;99.70;;;;;;5050687;28;20454;-66
2022/01/23 02:02:44;;;;;;;29.40;11.23;;;3.10;99.70;;;;;;5129634;27;20571;-66
2022/01/23 02:09:41;;;;;;;28.13;11.07;;;3.10;99.70;;;;;;5098551;28;20971;-66
2022/01/23 02:12:56;;;;;;;28.83;10.30;;;3.30;99.70;;;;;;5108795;28;20441;-66
2022/01/23 02:15:44;;;;;;;27.30;10.53;;;3.20;99.70;;;;;;5108429;28;20441;-66
2022/01/23 02:18:25;;;;;;;31.90;12.57;;;3.30;99.70;;;;;;5108084;28;20542;-66
2022/01/23 02:51:29;;;;;;;30.70;11.73;;;3.10;99.70;;;;;;5108007;28;20834;-67
2022/01/23 02:54:19;;;;;;;33.20;12.50;;;3.30;99.70;;;;;;5107930;28;20448;-67
2022/01/23 02:56:49;;;;;;;34.90;12.27;;;3.20;99.70;;;;;;5107917;28;20967;-67
2022/01/23 02:59:24;;;;;;;31.63;11.77;;;3.10;99.70;;;;;;5107277;28;20480;-67
2022/01/23 03:02:09;;;;;;;32.10;13.00;;;3.20;99.70;;;;;;5107904;28;20938;-67
2022/01/23 03:04:39;;;;;;;33.40;12.83;;;3.10;99.70;;;;;;5107729;28;20445;-68
2022/01/23 03:07:18;;;;;;;36.13;13.33;;;3.20;99.70;;;;;;5107748;28;20937;-67
2022/01/23 03:10:02;;;;;;;39.67;12.90;;;3.10;99.70;;;;;;5106323;28;20452;-67
2022/01/23 03:15:21;;;;;;;33.97;12.00;;;3.20;99.70;;;;;;5072338;28;20993;-67
2022/01/23 03:26:23;;;;;;;34.70;13.20;;;3.30;99.70;;;;;;5093730;28;20470;-67
2022/01/23 03:29:04;;;;;;;37.73;13.50;;;3.20;99.70;;;;;;5093180;28;20458;-67
2022/01/23 03:31:42;;;;;;;31.80;13.30;;;3.20;99.70;;;;;;5093532;28;20442;-67
2022/01/23 03:34:08;;;;;;;40.00;13.90;;;3.20;99.70;;;;;;5093543;28;20442;-67
2022/01/23 03:36:37;;;;;;;36.07;14.70;;;3.20;99.70;;;;;;5093631;28;20448;-67
2022/01/23 03:39:07;;;;;;;34.80;12.90;;;3.20;99.70;;;;;;5093045;28;20458;-67
2022/01/23 03:41:35;;;;;;;36.17;13.80;;;3.20;99.70;;;;;;5093556;28;20450;-67
2022/01/23 03:44:04;;;;;;;33.87;13.43;;;3.20;99.70;;;;;;5093494;28;20453;-67
2022/01/23 03:46:47;;;;;;;35.00;13.90;;;3.20;99.70;;;;;;5093433;28;20441;-67
2022/01/23 03:49:31;;;;;;;34.40;13.13;;;3.30;99.70;;;;;;5092891;28;20465;-67
2022/01/23 03:51:59;;;;;;;34.03;13.37;;;3.20;99.70;;;;;;5093258;28;20502;-67
2022/01/23 03:54:27;;;;;;;30.20;12.30;;;3.10;99.70;;;;;;5093200;28;20472;-67
2022/01/23 03:56:56;;;;;;;34.00;13.10;;;3.20;99.70;;;;;;5093031;28;20445;-67
2022/01/23 03:59:23;;;;;;;34.70;13.63;;;3.50;99.70;;;;;;5092467;28;20973;-66
2022/01/23 04:01:50;;;;;;;34.93;13.70;;;3.40;99.70;;;;;;5093030;28;20816;-67
2022/01/23 04:04:32;;;;;;;34.67;13.87;;;3.20;99.70;;;;;;5093044;28;20442;-67
2022/01/23 04:06:58;;;;;;;33.73;14.10;;;3.10;99.70;;;;;;5092836;28;20933;-67
2022/01/23 04:09:25;;;;;;;37.60;14.23;;;3.10;99.70;;;;;;5091865;28;20462;-67
2022/01/23 04:11:52;;;;;;;33.57;13.40;;;3.10;99.70;;;;;;5092790;28;20449;-67
2022/01/23 04:14:23;;;;;;;37.47;14.30;;;3.10;99.70;;;;;;5093012;28;20446;-67
2022/01/23 04:17:18;;;;;;;34.33;13.70;;;3.10;99.70;;;;;;5092697;28;20498;-67
2022/01/23 04:20:00;;;;;;;39.63;15.00;;;3.10;99.70;;;;;;5092074;28;20527;-67
2022/01/23 04:33:46;;;;;;;36.73;14.17;;;3.50;99.70;;;;;;5092749;28;20429;-67
2022/01/23 04:48:19;;;;;;;38.80;14.33;;;3.10;99.70;;;;;;5092240;28;20421;-67
2022/01/23 05:01:22;;;;;;;34.50;13.53;;;3.00;99.70;;;;;;5091932;28;20526;-67
2022/01/23 05:06:41;;;;;;;34.30;14.07;;;3.00;99.70;;;;;;5091854;28;20924;-66
2022/01/23 05:09:08;;;;;;;35.27;12.97;;;3.00;99.70;;;;;;5090535;28;20468;-67
2022/01/23 05:11:36;;;;;;;35.37;14.07;;;3.10;99.70;;;;;;5091630;28;20533;-67
2022/01/23 05:14:04;;;;;;;32.43;12.83;;;3.10;99.70;;;;;;5091845;28;20528;-67
2022/01/23 05:16:32;;;;;;;40.33;15.37;;;3.20;99.70;;;;;;5091569;28;20436;-67
2022/01/23 05:19:00;;;;;;;44.47;14.87;;;3.10;99.70;;;;;;5091207;28;20522;-67
2022/01/23 05:24:08;;;;;;;37.40;13.50;;;3.20;99.70;;;;;;5089367;28;20441;-67
2022/01/23 05:26:42;;;;;;;43.37;15.23;;;3.10;99.70;;;;;;5091448;28;20430;-67
2022/01/23 05:29:09;;;;;;;38.50;14.90;;;3.10;99.70;;;;;;5091109;28;20502;-67
2022/01/23 05:31:36;;;;;;;37.63;14.10;;;3.10;99.70;;;;;;5091400;28;20437;-66
2022/01/23 05:34:05;;;;;;;39.13;15.30;;;3.10;99.70;;;;;;5091290;28;20446;-67
2022/01/23 05:36:32;;;;;;;41.03;15.10;;;3.30;99.70;;;;;;5091498;28;20441;-67
2022/01/23 05:38:58;;;;;;;45.23;14.90;;;3.10;99.70;;;;;;5090882;28;20484;-67
2022/01/23 05:41:26;;;;;;;41.23;14.73;;;3.10;99.70;;;;;;5091110;28;20538;-66
2022/01/23 05:43:52;;;;;;;36.13;14.50;;;3.10;99.70;;;;;;5091258;28;20929;-66
2022/01/23 05:46:19;;;;;;;37.17;14.27;;;3.10;99.70;;;;;;5091242;28;20929;-66
2022/01/23 05:48:46;;;;;;;40.60;14.77;;;3.00;99.70;;;;;;5090746;28;20458;-67
2022/01/23 05:51:14;;;;;;;42.83;14.67;;;3.10;99.70;;;;;;5091241;28;20452;-67
2022/01/23 05:53:41;;;;;;;37.80;15.23;;;3.10;99.70;;;;;;5091419;28;20476;-67
2022/01/23 05:56:08;;;;;;;37.03;14.53;;;3.00;99.70;;;;;;5091242;28;20443;-67
2022/01/23 05:58:35;;;;;;;36.47;14.67;;;3.10;99.70;;;;;;5090530;28;20472;-66
2022/01/23 06:01:02;;;;;;;38.90;14.70;;;3.00;99.70;;;;;;5090961;28;20903;-67
2022/01/23 06:03:29;;;;;;;39.50;14.53;;;3.00;99.70;;;;;;5090986;28;20446;-67
2022/01/23 06:05:56;;;;;;;37.00;15.30;;;3.00;99.70;;;;;;5091140;28;20503;-67
2022/01/23 06:08:25;;;;;;;32.63;13.80;;;2.90;99.70;;;;;;5089725;28;20473;-67
2022/01/23 06:10:56;;;;;;;49.97;17.93;;;2.90;99.70;;;;;;5091001;28;20444;-66
2022/01/23 06:13:23;;;;;;;46.23;16.80;;;2.90;99.70;;;;;;5090949;28;20442;-67
2022/01/23 06:15:50;;;;;;;44.30;17.37;;;2.90;99.70;;;;;;5090962;28;20449;-67
2022/01/23 06:18:17;;;;;;;43.43;16.20;;;2.80;99.70;;;;;;5090395;28;20470;-67
2022/01/23 06:20:44;;;;;;;43.23;16.20;;;2.90;99.70;;;;;;5090940;28;20890;-66
2022/01/23 06:23:10;;;;;;;52.33;17.20;;;3.00;99.70;;;;;;5090807;28;20445;-67
2022/01/23 06:25:43;;;;;;;45.47;16.67;;;3.00;99.70;;;;;;5090785;28;20445;-66
2022/01/23 06:28:10;;;;;;;38.00;14.80;;;3.00;99.70;;;;;;5090393;28;20480;-67
2022/01/23 06:30:38;;;;;;;35.97;14.67;;;3.20;99.70;;;;;;5090823;28;20932;-66
2022/01/23 06:33:05;;;;;;;39.80;14.57;;;3.10;99.70;;;;;;5090662;28;20480;-67
2022/01/23 06:35:32;;;;;;;41.40;14.50;;;3.10;99.70;;;;;;5090805;28;20469;-67
2022/01/23 06:37:58;;;;;;;38.17;14.67;;;3.50;99.70;;;;;;5090388;28;20446;-66
2022/01/23 06:40:25;;;;;;;39.67;13.90;;;3.30;99.70;;;;;;5090741;28;20478;-67
2022/01/23 06:42:53;;;;;;;41.87;16.50;;;3.20;99.70;;;;;;5090732;28;20450;-66
2022/01/23 06:45:20;;;;;;;38.23;15.17;;;3.10;99.70;;;;;;5090747;28;20495;-67
2022/01/23 06:47:47;;;;;;;40.50;16.33;;;3.10;99.70;;;;;;5093530;28;20442;-65
2022/01/23 06:50:13;;;;;;;34.60;13.40;;;3.10;99.70;;;;;;5094584;28;20441;-67
2022/01/23 06:52:40;;;;;;;40.20;15.60;;;3.10;99.70;;;;;;5094491;28;20445;-67
2022/01/23 06:55:07;;;;;;;35.87;14.63;;;3.10;99.70;;;;;;5094467;28;20467;-67
2022/01/23 06:57:35;;;;;;;37.57;14.93;;;3.20;99.70;;;;;;5094384;28;20510;-67
2022/01/23 07:00:04;;;;;;;39.00;15.50;;;3.20;99.70;;;;;;5093705;28;20987;-67
2022/01/23 07:02:31;;;;;;;37.97;14.30;;;3.30;99.70;;;;;;5094140;28;20805;-67
2022/01/23 07:04:58;;;;;;;37.93;14.83;;;3.40;99.70;;;;;;5094153;28;20935;-66
2022/01/23 07:07:24;;;;;;;41.53;14.97;;;3.50;99.70;;;;;;5094244;28;20437;-67
2022/01/23 07:09:51;;;;;;;45.53;15.27;;;3.40;99.70;;;;;;5093185;28;20842;-67
2022/01/23 07:12:18;;;;;;;39.57;14.83;;;3.30;99.70;;;;;;5094065;28;20442;-67
2022/01/23 07:14:44;;;;;;;36.83;13.80;;;3.30;99.70;;;;;;5094003;28;20486;-67
2022/01/23 07:17:12;;;;;;;39.93;15.03;;;3.30;99.70;;;;;;5093950;28;20438;-67
2022/01/23 07:19:39;;;;;;;37.63;14.50;;;3.30;99.70;;;;;;5093445;28;20831;-67
2022/01/23 07:22:06;;;;;;;39.23;14.53;;;3.30;99.70;;;;;;5093848;28;20481;-67
2022/01/23 07:24:32;;;;;;;37.20;15.00;;;3.20;99.70;;;;;;5093764;28;20548;-67
2022/01/23 07:27:01;;;;;;;35.80;14.70;;;3.50;99.70;;;;;;5093780;28;20445;-67
2022/01/23 07:29:28;;;;;;;38.53;14.07;;;3.40;99.70;;;;;;5093251;28;20466;-67
2022/01/23 07:32:00;;;;;;;38.10;13.93;;;3.70;99.70;;;;;;5093691;28;20525;-67
2022/01/23 07:34:28;;;;;;;39.60;15.20;;;3.60;99.70;;;;;;5093666;28;20830;-67
2022/01/23 07:36:55;;;;;;;37.27;14.30;;;3.40;99.70;;;;;;5093566;28;20453;-67
2022/01/23 07:39:22;;;;;;;36.27;14.60;;;3.40;99.70;;;;;;5093045;28;20527;-67
2022/01/23 07:41:49;;;;;;;39.80;15.80;;;3.70;99.70;;;;;;5093318;28;20481;-67
2022/01/23 07:44:15;;;;;;;39.60;15.10;;;3.50;99.70;;;;;;5093243;28;20949;-68
2022/01/23 07:46:42;;;;;;;39.33;15.30;;;3.50;99.70;;;;;;5093297;28;20446;-67
2022/01/23 07:49:10;;;;;;;38.70;14.73;;;3.50;99.70;;;;;;5092836;28;20458;-67
2022/01/23 07:51:38;;;;;;;42.70;15.80;;;3.40;99.70;;;;;;5093270;28;20443;-67
2022/01/23 07:54:06;;;;;;;43.00;15.67;;;3.30;99.70;;;;;;5093127;28;20828;-66
2022/01/23 07:56:33;;;;;;;44.60;16.40;;;3.20;99.70;;;;;;5093277;28;20478;-66
2022/01/23 07:59:00;;;;;;;47.90;17.50;;;3.20;99.70;;;;;;5092418;28;20465;-66
2022/01/23 08:01:27;;;;;;;52.50;18.33;;;3.30;99.70;;;;;;5086531;28;20486;-67
2022/01/23 08:03:53;;;;;;;47.20;19.10;;;3.20;99.70;;;;;;5088626;28;20474;-67
2022/01/23 08:06:21;;;;;;;51.00;19.10;;;3.20;99.70;;;;;;5089738;28;20461;-67
2022/01/23 08:08:49;;;;;;;49.80;19.13;;;3.20;99.70;;;;;;5083692;28;20474;-67
2022/01/23 08:11:16;;;;;;;52.80;19.27;;;3.30;99.70;;;;;;5092556;28;20435;-67
2022/01/23 08:13:42;;;;;;;51.20;19.10;;;3.20;99.70;;;;;;5092800;28;20519;-67
2022/01/23 08:16:10;;;;;;;46.33;17.77;;;3.20;99.70;;;;;;5092855;28;20797;-67
2022/01/23 08:18:37;;;;;;;46.53;20.10;;;3.20;99.70;;;;;;5093258;28;20545;-67
2022/01/23 08:21:03;;;;;;;49.00;19.77;;;3.40;99.70;;;;;;5091817;28;20849;-66
2022/01/23 08:23:30;;;;;;;45.93;18.73;;;3.40;99.70;;;;;;5092300;28;20503;-66
2022/01/23 08:25:58;;;;;;;48.63;18.83;;;3.40;99.70;;;;;;5090708;28;20457;-67
2022/01/23 08:28:25;;;;;;;55.77;20.50;;;3.30;99.70;;;;;;5087964;28;20918;-66
2022/01/23 08:30:51;;;;;;;48.00;19.60;;;3.30;99.70;;;;;;5093700;28;20453;-67
2022/01/23 08:33:18;;;;;;;48.40;18.97;;;3.30;99.70;;;;;;5089284;28;20465;-66
2022/01/23 08:35:45;;;;;;;46.30;19.60;;;3.30;99.70;;;;;;5088750;28;20442;-67
2022/01/23 08:38:13;;;;;;;51.97;21.27;;;3.40;99.70;;;;;;5091361;28;20461;-67
2022/01/23 08:40:58;;;;;;;51.10;19.40;;;3.40;99.70;;;;;;5092066;28;20491;-66
2022/01/23 08:43:26;;;;;;;49.67;19.17;;;3.40;99.70;;;;;;5089120;28;20459;-66
2022/01/23 08:45:53;;;;;;;41.80;16.70;;;3.40;99.70;;;;;;5088574;28;20442;-66
2022/01/23 08:48:20;;;;;;;59.40;21.33;;;3.50;99.70;;;;;;5087132;28;20501;-67
2022/01/23 08:50:46;;;;;;;48.73;19.10;;;3.40;99.70;;;;;;5089777;28;20458;-67
2022/01/23 08:53:13;;;;;;;58.27;21.93;;;3.40;99.70;;;;;;5090651;28;20466;-67
2022/01/23 08:55:40;;;;;;;64.00;23.30;;;3.50;99.70;;;;;;5091395;28;20442;-67
2022/01/23 08:58:09;;;;;;;64.20;24.20;;;3.60;99.70;;;;;;5092567;28;20482;-66
2022/01/23 09:00:37;;;;;;;64.83;23.03;;;3.60;99.70;;;;;;5091392;28;20458;-67
2022/01/23 09:03:04;;;;;;;46.10;17.27;;;3.70;99.70;;;;;;5091708;28;20453;-67
2022/01/23 09:05:31;;;;;;;46.93;16.80;;;3.90;99.70;;;;;;5091102;28;20821;-66
2022/01/23 09:07:58;;;;;;;44.10;17.70;;;4.30;99.70;;;;;;5090768;28;20442;-66
2022/01/23 09:10:27;;;;;;;43.67;17.63;;;4.20;99.70;;;;;;5089550;28;20445;-66
2022/01/23 09:13:08;;;;;;;42.10;16.77;;;4.40;99.70;;;;;;5091454;28;21020;-66
2022/01/23 09:15:36;;;;;;;39.87;15.63;;;4.20;99.70;;;;;;5089433;28;20484;-66
2022/01/23 09:18:03;;;;;;;40.37;16.13;;;4.20;99.70;;;;;;5083090;28;20446;-66
2022/01/23 09:20:30;;;;;;;38.67;15.47;;;4.30;99.70;;;;;;5089954;28;20449;-67
2022/01/23 09:22:57;;;;;;;41.07;15.87;;;4.50;99.70;;;;;;5089760;28;20522;-66
2022/01/23 09:25:24;;;;;;;45.37;17.10;;;4.60;99.70;;;;;;5090264;28;20522;-66
2022/01/23 09:27:51;;;;;;;38.27;15.70;;;4.50;99.70;;;;;;5090070;28;20449;-66
2022/01/23 09:30:20;;;;;;;43.93;16.50;;;4.30;99.70;;;;;;5090077;28;20458;-66
2022/01/23 09:32:49;;;;;;;48.70;17.20;;;4.40;99.70;;;;;;5089603;28;20457;-67
2022/01/23 09:35:18;;;;;;;43.90;17.87;;;4.40;99.70;;;;;;5089160;28;20523;-66
2022/01/23 09:37:45;;;;;;;49.30;18.07;;;4.40;99.70;;;;;;5088518;28;20460;-67
2022/01/23 09:40:13;;;;;;;42.03;17.37;;;4.40;99.70;;;;;;5090348;28;20446;-67
2022/01/23 09:42:45;;;;;;;37.93;16.20;;;4.30;99.70;;;;;;5090226;28;21007;-67
2022/01/23 09:45:14;;;;;;;43.03;16.20;;;4.30;99.70;;;;;;5089969;28;20541;-67
2022/01/23 09:47:42;;;;;;;41.90;16.00;;;4.30;99.70;;;;;;5088609;28;20457;-65
2022/01/23 09:50:12;;;;;;;39.27;15.27;;;4.30;99.70;;;;;;5088877;28;20466;-67
2022/01/23 09:52:39;;;;;;;43.00;15.27;;;4.30;99.70;;;;;;5089851;28;20450;-66
2022/01/23 09:55:11;;;;;;;34.87;13.90;;;4.30;99.70;;;;;;5086711;28;20445;-68
2022/01/23 09:57:40;;;;;;;37.57;14.30;;;4.40;99.70;;;;;;5086577;28;20877;-66
2022/01/23 10:00:10;;;;;;;40.73;15.30;;;4.70;99.70;;;;;;5085380;28;20493;-66
2022/01/23 10:02:37;;;;;;;35.10;13.87;;;4.60;99.70;;;;;;5088255;28;20489;-66
2022/01/23 10:05:05;;;;;;;35.00;14.03;;;4.50;99.70;;;;;;5085310;28;20507;-67
2022/01/23 10:07:37;;;;;;;33.43;13.30;;;4.80;99.70;;;;;;5089589;28;20452;-67
2022/01/23 10:10:10;;;;;;;49.17;19.03;;;4.90;99.70;;;;;;5088699;28;20879;-67
2022/01/23 10:12:39;;;;;;;40.87;15.60;;;4.80;99.70;;;;;;5090255;28;20438;-67
2022/01/23 10:15:07;;;;;;;36.93;14.40;;;4.80;99.70;;;;;;5076479;28;20470;-66
2022/01/23 10:17:34;;;;;;;37.43;14.97;;;4.70;99.70;;;;;;5089432;28;20442;-66
2022/01/23 10:20:02;;;;;;;41.80;16.20;;;4.60;99.70;;;;;;5087074;28;20539;-67
2022/01/23 10:22:30;;;;;;;28.17;10.90;;;4.70;99.70;;;;;;5088737;28;20482;-66
2022/01/23 10:25:05;;;;;;;27.00;10.40;;;4.70;99.70;;;;;;5090932;28;20552;-67
2022/01/23 10:27:55;;;;;;;28.53;11.50;;;4.70;99.70;;;;;;5093284;28;20453;-67
2022/01/23 10:30:26;;;;;;;25.43;10.20;;;4.70;99.70;;;;;;5093416;28;20484;-67
2022/01/23 10:33:03;;;;;;;30.00;11.83;;;4.60;99.70;;;;;;5094400;28;20481;-67
2022/01/23 10:35:31;;;;;;;34.10;14.23;;;4.70;99.70;;;;;;5093208;28;20506;-66
2022/01/23 10:38:06;;;;;;;38.80;15.30;;;4.80;99.70;;;;;;5093549;28;20446;-67
2022/01/23 10:40:37;;;;;;;47.87;16.80;;;4.70;99.70;;;;;;5093711;28;20449;-67
2022/01/23 10:48:47;;;;;;;41.70;15.50;;;4.70;99.70;;;;;;5086876;28;20583;-67
2022/01/23 10:51:18;;;;;;;33.53;13.87;;;4.70;99.70;;;;;;5091496;28;20458;-66
2022/01/23 10:54:15;;;;;;;37.00;14.70;;;4.60;99.70;;;;;;5092331;28;20464;-67
2022/01/23 10:57:02;;;;;;;32.97;13.60;;;4.70;99.70;;;;;;5044283;28;20462;-67
2022/01/23 10:59:45;;;;;;;37.50;13.87;;;4.80;99.70;;;;;;5090819;28;20461;-67
2022/01/23 11:02:13;;;;;;;33.50;14.07;;;4.80;99.70;;;;;;5090927;28;20480;-67
2022/01/23 11:04:52;;;;;;;36.17;14.13;;;4.80;99.70;;;;;;5090190;28;20945;-67
2022/01/23 11:07:19;;;;;;;40.47;15.90;;;4.90;99.70;;;;;;5091608;28;20441;-67
2022/01/23 11:09:46;;;;;;;34.90;13.70;;;4.90;99.70;;;;;;5091909;28;20465;-67
2022/01/23 11:12:31;;;;;;;35.20;14.23;;;5.00;99.70;;;;;;5093081;28;20553;-67
2022/01/23 11:17:50;;;;;;;36.70;14.13;;;4.80;99.70;;;;;;5091855;28;20578;-67
2022/01/23 11:20:30;;;;;;;42.97;15.17;;;5.00;99.70;;;;;;5088874;28;20531;-67
2022/01/23 11:23:12;;;;;;;36.20;14.23;;;5.00;99.70;;;;;;5090200;28;20466;-67
2022/01/23 11:25:39;;;;;;;32.60;13.03;;;5.00;99.70;;;;;;5091535;28;20507;-67
2022/01/23 11:28:07;;;;;;;37.43;14.40;;;5.00;99.70;;;;;;5092737;28;20445;-67
2022/01/23 11:30:37;;;;;;;35.00;13.53;;;5.10;99.70;;;;;;5092554;28;20820;-67
2022/01/23 11:33:04;;;;;;;31.13;12.90;;;5.00;99.70;;;;;;5092300;28;20446;-67
2022/01/23 11:35:31;;;;;;;28.43;12.00;;;5.10;99.70;;;;;;5092618;28;20822;-66
2022/01/23 11:37:58;;;;;;;39.10;15.10;;;5.10;99.70;;;;;;5092062;28;20438;-66
2022/01/23 11:40:42;;;;;;;31.00;12.27;;;5.00;99.70;;;;;;5092666;28;20449;-67
2022/01/23 11:54:15;;;;;;;35.77;14.13;;;5.20;99.70;;;;;;5091899;28;20449;-66
2022/01/23 11:56:46;;;;;;;41.67;14.60;;;5.30;99.70;;;;;;5088238;28;20524;-67
2022/01/23 11:59:26;;;;;;;35.33;14.63;;;5.30;99.70;;;;;;5091724;28;20462;-66
2022/01/23 12:02:22;;;;;;;24.73;10.13;;;5.20;99.70;;;;;;5090520;28;20481;-67
2022/01/23 12:05:22;;;;;;;26.77;10.30;;;5.20;99.70;;;;;;5087561;28;20456;-67
2022/01/23 12:08:28;;;;;;;26.13;11.07;;;5.30;99.70;;;;;;5076884;28;20957;-66
2022/01/23 12:17:22;;;;;;;20.27;9.17;;;5.40;99.70;;;;;;5090986;28;20527;-66
2022/01/23 12:19:54;;;;;;;26.00;10.97;;;5.40;99.70;;;;;;5088508;28;20566;-67
2022/01/23 12:22:32;;;;;;;24.13;9.70;;;5.40;99.70;;;;;;5090029;28;20484;-67
2022/01/23 12:25:06;;;;;;;23.30;9.53;;;5.30;99.70;;;;;;5085687;28;20445;-67
2022/01/23 12:27:33;;;;;;;22.53;10.07;;;5.40;99.70;;;;;;5092214;28;20823;-66
2022/01/23 12:30:13;;;;;;;29.17;10.50;;;5.70;99.70;;;;;;5091811;28;20461;-67
2022/01/23 12:32:40;;;;;;;25.80;10.10;;;5.60;99.70;;;;;;5091765;28;20880;-67
2022/01/23 12:35:10;;;;;;;22.33;8.40;;;5.60;99.70;;;;;;5092250;28;20556;-67
2022/01/23 12:38:08;;;;;;;22.50;8.97;;;5.50;99.70;;;;;;5091968;28;20497;-66
2022/01/23 12:40:37;;;;;;;20.53;7.77;;;5.50;99.70;;;;;;5091069;28;20442;-67
2022/01/23 12:43:06;;;;;;;21.00;8.80;;;5.60;99.70;;;;;;5091630;28;21027;-67
2022/01/23 12:45:55;;;;;;;20.13;8.13;;;5.50;99.70;;;;;;5091558;28;20445;-67
2022/01/23 12:48:48;;;;;;;20.63;8.40;;;5.60;99.70;;;;;;5073272;28;20472;-66
2022/01/23 12:51:45;;;;;;;22.30;8.70;;;5.60;99.70;;;;;;5087988;28;20442;-67
2022/01/23 12:54:30;;;;;;;23.93;9.10;;;5.50;99.70;;;;;;5064406;28;20431;-67
2022/01/23 12:57:07;;;;;;;23.43;9.10;;;5.60;99.70;;;;;;5076225;28;20874;-67
2022/01/23 12:59:35;;;;;;;27.03;10.27;;;5.60;99.70;;;;;;5091012;28;20472;-67
2022/01/23 13:02:10;;;;;;;24.97;10.37;;;5.50;99.70;;;;;;5087845;28;20468;-68
2022/01/23 13:04:40;;;;;;;19.00;8.57;;;5.60;99.70;;;;;;5089667;28;20461;-67
2022/01/23 13:07:15;;;;;;;24.57;9.83;;;5.50;99.70;;;;;;5091237;28;20503;-67
2022/01/23 13:09:49;;;;;;;19.30;8.20;;;5.50;99.70;;;;;;5090560;28;20505;-67
2022/01/23 13:12:31;;;;;;;17.87;7.67;;;5.60;99.70;;;;;;5091463;28;20437;-67
2022/01/23 13:15:16;;;;;;;17.30;6.97;;;5.50;99.70;;;;;;5090770;28;20477;-67
2022/01/23 13:17:54;;;;;;;15.70;6.97;;;5.60;99.70;;;;;;5087283;28;20450;-66
2022/01/23 13:31:57;;;;;;;14.50;6.30;;;5.60;99.70;;;;;;5009763;28;20897;-68
2022/01/23 13:34:29;;;;;;;14.37;6.70;;;5.60;99.70;;;;;;5065617;28;20453;-67
2022/01/23 13:36:58;;;;;;;10.60;5.03;;;5.60;99.70;;;;;;5087575;28;20451;-67
2022/01/23 13:39:27;;;;;;;6.63;3.20;;;5.60;99.70;;;;;;5089758;28;20462;-67
2022/01/23 13:42:04;;;;;;;6.40;3.30;;;5.60;99.70;;;;;;5090192;28;20905;-67
2022/01/23 13:53:13;;;;;;;7.60;3.50;;;5.50;99.70;;;;;;4992818;28;20561;-67
2022/01/23 13:58:34;;;;;;;9.83;4.40;;;5.40;99.70;;;;;;5005146;28;20855;-67
2022/01/23 14:01:15;;;;;;;10.60;4.20;;;5.50;99.70;;;;;;5074062;28;20469;-67
2022/01/23 14:03:43;;;;;;;9.50;4.00;;;5.50;99.70;;;;;;5089159;28;20915;-67
2022/01/23 14:06:12;;;;;;;11.70;4.77;;;5.30;99.70;;;;;;5089991;28;20458;-67
2022/01/23 14:08:38;;;;;;;13.00;5.50;;;5.40;99.70;;;;;;5078542;28;20478;-67
2022/01/23 14:11:05;;;;;;;9.57;3.80;;;5.40;99.70;;;;;;5070564;28;20447;-67
2022/01/23 14:13:32;;;;;;;12.40;5.87;;;5.40;99.70;;;;;;5070655;28;20832;-66
2022/01/23 14:15:59;;;;;;;10.30;4.80;;;5.40;99.70;;;;;;5088696;28;20450;-67
2022/01/23 14:18:27;;;;;;;11.07;4.50;;;5.50;99.70;;;;;;5087614;28;20992;-67
2022/01/23 14:21:03;;;;;;;14.20;5.90;;;5.50;99.70;;;;;;5087822;28;20448;-67
2022/01/23 14:23:33;;;;;;;19.20;7.50;;;5.50;99.70;;;;;;5087924;28;20470;-67
2022/01/23 14:26:07;;;;;;;30.20;9.80;;;5.50;99.70;;;;;;5090311;28;20453;-67
2022/01/23 14:28:38;;;;;;;22.20;8.37;;;5.50;99.70;;;;;;5084418;28;21018;-67
2022/01/23 14:31:13;;;;;;;11.07;5.00;;;5.50;99.70;;;;;;5089950;28;20442;-66
2022/01/23 14:33:40;;;;;;;10.03;4.63;;;5.50;99.70;;;;;;5088334;28;20452;-67
2022/01/23 14:36:15;;;;;;;9.87;4.93;;;5.50;99.70;;;;;;5085817;28;20449;-66
2022/01/23 14:38:54;;;;;;;10.93;4.90;;;5.40;99.70;;;;;;5089107;28;20553;-66
2022/01/23 14:41:21;;;;;;;9.03;4.43;;;5.50;99.70;;;;;;5090479;28;20457;-66
2022/01/23 14:43:48;;;;;;;10.17;4.70;;;5.50;99.70;;;;;;5087565;28;20485;-66
2022/01/23 14:46:14;;;;;;;10.17;4.80;;;5.40;99.70;;;;;;5088355;28;20461;-66
2022/01/23 14:48:46;;;;;;;10.57;4.80;;;5.40;99.70;;;;;;5089238;28;20591;-67
2022/01/23 14:51:18;;;;;;;10.97;4.57;;;5.40;99.70;;;;;;5088963;28;20446;-66
2022/01/23 14:53:48;;;;;;;9.03;4.30;;;5.30;99.70;;;;;;5090146;28;20487;-66
2022/01/23 14:56:15;;;;;;;10.40;4.70;;;5.40;99.70;;;;;;5089685;28;20448;-67
2022/01/23 14:58:43;;;;;;;11.33;5.03;;;5.30;99.70;;;;;;5086616;28;21091;-66
2022/01/23 15:01:12;;;;;;;12.27;5.07;;;5.20;99.70;;;;;;5089118;28;20462;-66
2022/01/23 15:03:43;;;;;;;11.30;4.83;;;5.20;99.70;;;;;;5088787;28;20477;-67
2022/01/23 15:06:13;;;;;;;10.43;5.20;;;5.20;99.70;;;;;;5080806;28;20458;-67
2022/01/23 15:08:39;;;;;;;9.23;4.50;;;5.20;99.70;;;;;;5089479;28;20461;-67
2022/01/23 15:11:07;;;;;;;12.40;5.03;;;5.20;99.70;;;;;;5093051;28;20442;-66
2022/01/23 15:13:36;;;;;;;9.87;4.53;;;5.20;99.70;;;;;;5091294;28;20434;-67
2022/01/23 15:16:03;;;;;;;10.93;4.87;;;5.10;99.70;;;;;;5092787;28;20691;-67
2022/01/23 15:18:30;;;;;;;10.77;4.80;;;5.10;99.70;;;;;;5092297;28;20476;-67
2022/01/23 15:20:57;;;;;;;10.10;4.80;;;5.10;99.70;;;;;;5091754;28;21096;-66
2022/01/23 15:23:23;;;;;;;12.50;5.40;;;5.10;99.70;;;;;;5091829;28;21393;-68
2022/01/23 15:25:50;;;;;;;14.53;5.37;;;5.10;99.70;;;;;;5091981;28;20460;-67
2022/01/23 15:28:18;;;;;;;13.90;5.80;;;5.10;99.70;;;;;;5091924;28;20460;-67
2022/01/23 15:30:45;;;;;;;10.70;5.37;;;5.10;99.70;;;;;;5092956;28;20462;-68
2022/01/23 15:33:12;;;;;;;14.47;5.43;;;5.10;99.70;;;;;;5087967;28;20712;-67
2022/01/23 15:35:46;;;;;;;11.60;5.67;;;5.00;99.70;;;;;;5092377;28;20446;-67
2022/01/23 15:38:13;;;;;;;10.87;4.70;;;5.10;99.70;;;;;;5089296;28;20509;-67
2022/01/23 15:40:40;;;;;;;10.67;4.50;;;5.00;99.70;;;;;;5092113;28;20442;-67
2022/01/23 15:43:07;;;;;;;9.00;4.47;;;5.00;99.70;;;;;;5088270;28;20497;-67
2022/01/23 15:45:35;;;;;;;11.87;4.70;;;5.00;99.70;;;;;;5086105;28;20446;-67